Time;durP1;ratioP1;P1;durP2;ratioP2;P2;SDS_P1;SDS_P2;PMS_P1;PMS_P2;Temp;Humidity;BMP_temperature;BMP_pressure;BME280_temperature;BME280_humidity;BME280_pressure;Samples;Min_cycle;Max_cycle;Signal;HPM_P1;HPM_P2
2023/12/29 00:00:41;;;;;;;20.90;5.17;;;9.80;99.90;;;;;;5094413;28;20137;-82
2023/12/29 00:03:07;;;;;;;17.73;3.20;;;9.80;99.90;;;;;;5094004;28;20365;-82
2023/12/29 00:05:33;;;;;;;12.90;3.47;;;9.80;99.90;;;;;;5094645;28;20047;-81
2023/12/29 00:07:59;;;;;;;22.60;3.47;;;9.80;99.90;;;;;;5095717;28;20042;-81
2023/12/29 00:10:24;;;;;;;17.43;4.23;;;9.80;99.90;;;;;;5095624;28;20456;-82
2023/12/29 00:12:50;;;;;;;14.83;3.50;;;9.70;99.90;;;;;;5095552;28;20047;-82
2023/12/29 00:15:19;;;;;;;17.20;3.17;;;9.80;99.90;;;;;;5094485;28;20048;-82
2023/12/29 00:17:46;;;;;;;17.77;3.90;;;9.80;99.90;;;;;;5095520;28;20043;-82
2023/12/29 00:20:12;;;;;;;16.20;3.47;;;9.80;99.90;;;;;;5094265;28;20282;-82
2023/12/29 00:22:38;;;;;;;18.13;3.20;;;9.70;99.90;;;;;;5095589;28;20604;-82
2023/12/29 00:25:04;;;;;;;19.07;4.07;;;9.70;99.90;;;;;;5095381;28;20122;-82
2023/12/29 00:27:29;;;;;;;17.77;4.03;;;9.70;99.90;;;;;;5094270;28;20043;-82
2023/12/29 00:29:55;;;;;;;20.37;3.90;;;9.70;99.90;;;;;;5095455;28;20274;-81
2023/12/29 00:32:21;;;;;;;21.33;4.17;;;9.70;99.90;;;;;;5093888;28;20044;-82
2023/12/29 00:34:47;;;;;;;16.70;2.83;;;9.70;99.90;;;;;;5094921;28;20048;-82
2023/12/29 00:37:12;;;;;;;20.50;3.97;;;9.70;99.90;;;;;;5095096;28;20047;-81
2023/12/29 00:39:38;;;;;;;15.00;3.30;;;9.70;99.90;;;;;;5093786;28;20040;-82
2023/12/29 00:42:07;;;;;;;20.50;4.07;;;9.70;99.90;;;;;;5094927;28;20036;-82
2023/12/29 00:44:34;;;;;;;21.63;3.83;;;9.80;99.90;;;;;;5094979;28;20121;-82
2023/12/29 00:47:00;;;;;;;21.30;4.07;;;9.70;99.90;;;;;;5095009;28;20270;-82
2023/12/29 00:49:26;;;;;;;25.27;4.37;;;9.70;99.90;;;;;;5094700;28;20274;-83
2023/12/29 00:51:52;;;;;;;19.13;4.17;;;9.80;99.90;;;;;;5093960;28;20286;-82
2023/12/29 00:54:18;;;;;;;18.83;4.00;;;9.70;99.90;;;;;;5094734;28;20504;-82
2023/12/29 00:56:51;;;;;;;18.27;3.90;;;9.70;99.90;;;;;;5094830;28;20274;-83
2023/12/29 00:59:19;;;;;;;17.53;3.87;;;9.70;99.90;;;;;;5094610;28;20122;-83
2023/12/29 01:01:45;;;;;;;15.67;3.33;;;9.70;99.90;;;;;;5094584;28;20274;-82
2023/12/29 01:04:11;;;;;;;16.10;3.70;;;9.70;99.90;;;;;;5094589;28;20710;-82
2023/12/29 01:06:37;;;;;;;22.77;3.90;;;9.70;99.90;;;;;;5093853;28;20088;-82
2023/12/29 01:09:03;;;;;;;26.40;5.07;;;9.70;99.90;;;;;;5094386;28;20036;-82
2023/12/29 01:11:29;;;;;;;21.17;4.43;;;9.70;99.90;;;;;;5094019;28;20093;-83
2023/12/29 01:13:54;;;;;;;23.43;4.50;;;9.60;99.90;;;;;;5093726;28;20290;-83
2023/12/29 01:16:20;;;;;;;25.03;6.43;;;9.60;99.90;;;;;;5094195;28;20044;-83
2023/12/29 01:18:46;;;;;;;24.50;4.77;;;9.60;99.90;;;;;;5093339;28;20039;-83
2023/12/29 01:21:11;;;;;;;29.67;5.07;;;9.60;99.90;;;;;;5094271;28;20087;-83
2023/12/29 01:23:37;;;;;;;20.87;4.53;;;9.50;99.90;;;;;;5092233;28;20036;-82
2023/12/29 01:26:03;;;;;;;28.03;5.03;;;9.60;99.90;;;;;;5094311;28;20089;-83
2023/12/29 01:28:28;;;;;;;22.73;4.73;;;9.60;99.90;;;;;;5092935;28;20512;-82
2023/12/29 01:30:54;;;;;;;27.53;5.33;;;9.60;99.90;;;;;;5093983;28;20051;-82
2023/12/29 01:33:21;;;;;;;22.87;4.60;;;9.60;99.90;;;;;;5093616;28;20059;-81
2023/12/29 01:35:47;;;;;;;18.67;3.97;;;9.60;99.90;;;;;;5093468;28;20060;-82
2023/12/29 01:38:13;;;;;;;21.03;4.33;;;9.60;99.90;;;;;;5092984;28;20368;-81
2023/12/29 01:40:45;;;;;;;20.70;4.50;;;9.60;99.90;;;;;;5094144;28;20074;-81
2023/12/29 01:43:11;;;;;;;19.07;3.87;;;9.60;99.90;;;;;;5093595;28;20075;-81
2023/12/29 01:45:37;;;;;;;19.90;3.47;;;9.50;99.90;;;;;;5093089;28;20270;-81
2023/12/29 01:48:03;;;;;;;17.83;2.80;;;9.50;99.90;;;;;;5090842;28;20296;-81
2023/12/29 01:50:29;;;;;;;19.23;4.23;;;9.40;99.90;;;;;;5091351;28;20036;-82
2023/12/29 01:52:56;;;;;;;19.03;3.60;;;9.40;99.90;;;;;;5091316;28;20754;-82
2023/12/29 01:55:24;;;;;;;14.27;3.50;;;9.40;99.90;;;;;;5091364;28;20372;-82
2023/12/29 01:57:50;;;;;;;17.20;3.97;;;9.40;99.90;;;;;;5091438;28;20285;-81
2023/12/29 02:00:18;;;;;;;17.53;3.30;;;9.30;99.90;;;;;;5091143;28;20347;-82
2023/12/29 02:02:46;;;;;;;12.70;2.33;;;9.30;99.90;;;;;;5092079;28;20298;-82
2023/12/29 02:05:15;;;;;;;14.77;3.20;;;9.30;99.90;;;;;;5093486;28;20309;-80
2023/12/29 02:07:42;;;;;;;11.23;2.37;;;9.20;99.90;;;;;;5093799;28;20285;-82
2023/12/29 02:10:09;;;;;;;12.47;3.37;;;9.10;99.90;;;;;;5093561;28;20380;-81
2023/12/29 02:12:37;;;;;;;15.67;3.00;;;9.10;99.90;;;;;;5093250;28;20283;-81
2023/12/29 02:15:05;;;;;;;16.67;4.03;;;9.00;99.90;;;;;;5093299;28;20278;-82
2023/12/29 02:17:59;;;;;;;17.73;4.43;;;8.90;99.90;;;;;;5092090;28;20374;-82
2023/12/29 02:20:26;;;;;;;15.93;2.70;;;8.90;99.90;;;;;;5093347;28;20274;-81
2023/12/29 02:22:51;;;;;;;20.73;3.87;;;8.90;99.90;;;;;;5093274;28;20294;-81
2023/12/29 02:25:17;;;;;;;18.00;3.83;;;8.80;99.90;;;;;;5092927;28;20282;-82
2023/12/29 02:28:04;;;;;;;24.57;4.73;;;8.90;99.90;;;;;;5093364;28;20443;-81
2023/12/29 02:30:34;;;;;;;22.57;4.73;;;8.90;99.90;;;;;;5092347;28;20479;-81
2023/12/29 02:33:04;;;;;;;21.47;4.67;;;9.00;99.90;;;;;;5092097;28;20635;-81
2023/12/29 02:35:35;;;;;;;23.00;4.27;;;9.00;99.90;;;;;;5092790;28;20278;-80
2023/12/29 02:38:01;;;;;;;24.70;5.37;;;9.00;99.90;;;;;;5093369;28;20278;-81
2023/12/29 02:40:27;;;;;;;35.20;6.17;;;9.00;99.90;;;;;;5092845;28;20282;-81
2023/12/29 02:42:53;;;;;;;34.33;6.00;;;9.00;99.90;;;;;;5093145;28;20040;-82
2023/12/29 02:45:19;;;;;;;38.77;6.93;;;9.10;99.90;;;;;;5091819;28;20036;-81
2023/12/29 02:47:45;;;;;;;33.33;7.57;;;9.10;99.90;;;;;;5093082;28;20040;-81
2023/12/29 02:50:11;;;;;;;44.17;7.20;;;9.10;99.90;;;;;;5092944;28;20032;-81
2023/12/29 02:52:37;;;;;;;40.27;7.00;;;9.20;99.90;;;;;;5093055;28;20297;-81
2023/12/29 02:55:03;;;;;;;38.77;6.87;;;9.20;99.90;;;;;;5092051;28;20748;-81
2023/12/29 02:57:29;;;;;;;28.27;6.57;;;9.30;99.90;;;;;;5092962;28;20278;-81
2023/12/29 02:59:56;;;;;;;40.50;6.60;;;9.30;99.90;;;;;;5093069;28;20278;-81
2023/12/29 03:02:22;;;;;;;34.90;7.20;;;9.30;99.90;;;;;;5092733;28;20297;-80
2023/12/29 03:04:48;;;;;;;38.10;7.40;;;9.40;99.90;;;;;;5092913;28;20303;-81
2023/12/29 03:07:14;;;;;;;38.30;8.40;;;9.40;99.90;;;;;;5092768;28;20274;-81
2023/12/29 03:09:39;;;;;;;34.30;6.93;;;9.40;99.90;;;;;;5092802;28;20281;-81
2023/12/29 03:12:06;;;;;;;44.73;7.07;;;9.40;99.90;;;;;;5093144;28;20397;-81
2023/12/29 03:14:32;;;;;;;34.97;7.00;;;9.40;99.90;;;;;;5091777;28;20170;-81
2023/12/29 03:16:58;;;;;;;33.53;5.67;;;9.50;99.90;;;;;;5092712;28;20740;-82
2023/12/29 03:19:24;;;;;;;27.87;7.27;;;9.50;99.90;;;;;;5092475;28;20040;-81
2023/12/29 03:21:50;;;;;;;40.43;6.97;;;9.50;99.90;;;;;;5091761;28;20285;-81
2023/12/29 03:24:16;;;;;;;36.23;6.40;;;9.50;99.90;;;;;;5092820;28;20125;-82
2023/12/29 03:26:42;;;;;;;38.17;6.50;;;9.50;99.90;;;;;;5092624;28;20771;-81
2023/12/29 03:29:08;;;;;;;35.17;7.03;;;9.50;99.90;;;;;;5092766;28;20075;-81
2023/12/29 03:31:34;;;;;;;27.03;5.23;;;9.50;99.90;;;;;;5091226;28;20044;-81
2023/12/29 03:34:00;;;;;;;33.53;6.43;;;9.40;99.90;;;;;;5092639;28;20052;-81
2023/12/29 03:36:25;;;;;;;41.40;7.23;;;9.40;99.90;;;;;;5092356;28;20047;-80
2023/12/29 03:38:51;;;;;;;35.10;6.50;;;9.40;99.90;;;;;;5092668;28;20048;-81
2023/12/29 03:41:17;;;;;;;35.47;6.77;;;9.40;99.90;;;;;;5091872;28;20044;-81
2023/12/29 03:43:42;;;;;;;41.17;6.77;;;9.30;99.90;;;;;;5091043;28;20102;-81
2023/12/29 03:46:19;;;;;;;39.33;6.97;;;9.30;99.90;;;;;;5092301;28;20044;-81
2023/12/29 03:48:45;;;;;;;41.47;7.13;;;9.30;99.90;;;;;;5095895;28;20370;-81
2023/12/29 03:51:10;;;;;;;36.50;7.40;;;9.30;99.90;;;;;;5095112;28;20338;-81
2023/12/29 03:53:36;;;;;;;36.93;7.20;;;9.30;99.90;;;;;;5096085;28;20040;-81
2023/12/29 03:56:08;;;;;;;30.60;6.23;;;9.30;99.90;;;;;;5096515;28;20040;-81
2023/12/29 03:58:35;;;;;;;31.57;7.30;;;9.30;99.90;;;;;;5095778;28;20127;-81
2023/12/29 04:01:01;;;;;;;31.93;5.87;;;9.30;99.90;;;;;;5095898;28;20631;-81
2023/12/29 04:03:27;;;;;;;32.57;6.53;;;9.30;99.90;;;;;;5095333;28;20298;-81
2023/12/29 04:05:53;;;;;;;33.30;6.73;;;9.30;99.90;;;;;;5095887;28;20408;-81
2023/12/29 04:08:19;;;;;;;32.00;6.03;;;9.30;99.90;;;;;;5095586;28;20369;-82
2023/12/29 04:10:45;;;;;;;36.17;6.70;;;9.30;99.90;;;;;;5095460;28;20044;-81
2023/12/29 04:13:11;;;;;;;35.63;7.67;;;9.30;99.90;;;;;;5095555;28;20032;-81
2023/12/29 04:15:36;;;;;;;30.67;6.40;;;9.30;99.90;;;;;;5095450;28;20055;-81
2023/12/29 04:18:02;;;;;;;31.03;6.83;;;9.30;99.90;;;;;;5094479;28;20289;-82
2023/12/29 04:20:28;;;;;;;30.70;6.20;;;9.20;99.90;;;;;;5095327;28;20059;-81
2023/12/29 04:22:55;;;;;;;31.67;5.50;;;9.30;99.90;;;;;;5094751;28;20156;-82
2023/12/29 04:25:20;;;;;;;36.13;7.20;;;9.30;99.90;;;;;;5095507;28;20048;-82
2023/12/29 04:27:46;;;;;;;26.47;6.13;;;9.30;99.90;;;;;;5095227;28;20332;-81
2023/12/29 04:30:12;;;;;;;25.00;4.90;;;9.30;99.90;;;;;;5095154;28;20086;-82
2023/12/29 04:32:38;;;;;;;29.50;5.33;;;9.20;99.90;;;;;;5093893;28;20040;-82
2023/12/29 04:35:04;;;;;;;23.23;5.13;;;9.20;99.90;;;;;;5095409;28;20052;-81
2023/12/29 04:37:30;;;;;;;27.33;5.33;;;9.20;99.90;;;;;;5094177;28;20049;-81
2023/12/29 04:39:55;;;;;;;26.87;6.33;;;9.20;99.90;;;;;;5095265;28;20308;-81
2023/12/29 04:42:21;;;;;;;30.03;5.73;;;9.20;99.90;;;;;;5095070;28;20039;-81
2023/12/29 04:44:47;;;;;;;27.80;5.53;;;9.20;99.90;;;;;;5094876;28;20466;-81
2023/12/29 04:47:12;;;;;;;27.43;5.70;;;9.20;99.90;;;;;;5093870;28;20050;-81
2023/12/29 04:49:38;;;;;;;30.13;6.30;;;9.20;99.90;;;;;;5094875;28;20044;-82
2023/12/29 04:52:04;;;;;;;28.87;5.27;;;9.20;99.90;;;;;;5094840;28;20139;-82
2023/12/29 04:54:30;;;;;;;35.20;6.83;;;9.20;99.90;;;;;;5093953;28;20290;-82
2023/12/29 04:56:56;;;;;;;30.43;7.80;;;9.20;99.90;;;;;;5094583;28;20293;-83
2023/12/29 04:59:21;;;;;;;35.40;7.07;;;9.20;99.90;;;;;;5094766;28;20047;-82
2023/12/29 05:01:47;;;;;;;25.90;5.90;;;9.30;99.90;;;;;;5094477;28;20606;-82
2023/12/29 05:04:14;;;;;;;32.80;5.80;;;9.30;99.90;;;;;;5094867;28;20032;-82
2023/12/29 05:06:40;;;;;;;30.27;5.43;;;9.40;99.90;;;;;;5094596;28;20377;-82
2023/12/29 05:09:06;;;;;;;22.63;4.97;;;9.40;99.90;;;;;;5094675;28;20277;-82
2023/12/29 05:11:32;;;;;;;28.17;5.33;;;9.40;99.90;;;;;;5094051;28;20282;-81
2023/12/29 05:13:58;;;;;;;32.43;6.20;;;9.30;99.90;;;;;;5094340;28;20465;-81
2023/12/29 05:16:23;;;;;;;32.53;6.23;;;9.40;99.90;;;;;;5094356;28;20040;-82
2023/12/29 05:18:49;;;;;;;33.93;6.60;;;9.30;99.90;;;;;;5093147;28;20449;-82
2023/12/29 05:21:18;;;;;;;37.87;6.80;;;9.30;99.90;;;;;;5094422;28;20105;-82
2023/12/29 05:23:48;;;;;;;30.60;6.80;;;9.30;99.90;;;;;;5094028;28;20032;-82
2023/12/29 05:26:14;;;;;;;31.63;6.73;;;9.30;99.90;;;;;;5092996;28;20292;-82
2023/12/29 05:28:40;;;;;;;34.07;6.13;;;9.30;99.90;;;;;;5093829;28;20361;-82
2023/12/29 05:31:06;;;;;;;35.17;6.70;;;9.30;99.90;;;;;;5094336;28;20365;-83
2023/12/29 05:33:32;;;;;;;30.90;6.33;;;9.30;99.90;;;;;;5093922;28;20058;-82
2023/12/29 05:35:58;;;;;;;26.93;5.50;;;9.30;99.90;;;;;;5093699;28;20516;-83
2023/12/29 05:38:24;;;;;;;31.07;6.17;;;9.20;99.90;;;;;;5094052;28;20368;-82
2023/12/29 05:40:50;;;;;;;38.73;6.33;;;9.30;99.90;;;;;;5075879;28;20318;-83
2023/12/29 05:43:16;;;;;;;27.83;5.20;;;9.30;99.90;;;;;;5093803;28;20036;-83
2023/12/29 05:45:42;;;;;;;37.47;5.70;;;9.30;99.90;;;;;;5093696;28;20362;-82
2023/12/29 05:48:08;;;;;;;22.33;5.30;;;9.30;99.90;;;;;;5093939;28;20055;-83
2023/12/29 05:50:33;;;;;;;31.37;5.40;;;9.30;99.90;;;;;;5093956;28;20040;-83
2023/12/29 05:52:59;;;;;;;23.47;5.03;;;9.30;99.90;;;;;;5075761;28;20431;-83
2023/12/29 05:55:25;;;;;;;24.90;5.70;;;9.30;99.90;;;;;;5093785;28;20032;-83
2023/12/29 05:57:51;;;;;;;33.27;5.70;;;9.40;99.90;;;;;;5093528;28;20119;-83
2023/12/29 06:00:17;;;;;;;29.33;5.80;;;9.40;99.90;;;;;;5094057;28;20105;-83
2023/12/29 06:02:43;;;;;;;29.57;6.00;;;9.40;99.90;;;;;;5093558;28;20173;-83
2023/12/29 06:05:11;;;;;;;29.80;5.97;;;9.50;99.90;;;;;;5093784;28;20062;-83
2023/12/29 06:07:37;;;;;;;30.97;5.93;;;9.50;99.90;;;;;;5093584;28;20369;-84
2023/12/29 06:10:03;;;;;;;25.77;5.30;;;9.50;99.90;;;;;;5092773;28;20408;-83
2023/12/29 06:12:29;;;;;;;27.07;6.40;;;9.50;99.90;;;;;;5092443;28;20040;-83
2023/12/29 06:14:54;;;;;;;24.60;5.13;;;9.50;99.90;;;;;;5093410;28;20288;-83
2023/12/29 06:17:20;;;;;;;30.53;6.33;;;9.50;99.90;;;;;;5092536;28;20043;-82
2023/12/29 06:19:46;;;;;;;34.80;5.57;;;9.50;99.90;;;;;;5092198;28;20048;-81
2023/12/29 06:22:14;;;;;;;34.87;6.63;;;9.50;99.90;;;;;;5092389;28;20097;-81
2023/12/29 06:24:40;;;;;;;35.33;6.07;;;9.40;99.90;;;;;;5092318;28;20079;-81
2023/12/29 06:27:08;;;;;;;38.00;6.17;;;9.40;99.90;;;;;;5093018;28;20335;-81
2023/12/29 06:29:33;;;;;;;36.13;5.87;;;9.40;99.90;;;;;;5093479;28;20365;-80
2023/12/29 06:31:59;;;;;;;27.67;4.93;;;9.40;99.90;;;;;;5091987;28;20365;-81
2023/12/29 06:34:25;;;;;;;31.57;5.70;;;9.40;99.90;;;;;;5093188;28;20108;-81
2023/12/29 06:36:51;;;;;;;33.23;6.10;;;9.40;99.90;;;;;;5093027;28;20052;-81
2023/12/29 06:39:16;;;;;;;29.90;5.87;;;9.40;99.90;;;;;;5093159;28;20051;-81
2023/12/29 06:41:42;;;;;;;31.20;6.57;;;9.40;99.90;;;;;;5091852;28;20107;-81
2023/12/29 06:44:08;;;;;;;33.93;6.87;;;9.30;99.90;;;;;;5092055;28;20119;-81
2023/12/29 06:46:36;;;;;;;33.20;6.67;;;9.40;99.90;;;;;;5093212;28;20082;-81
2023/12/29 06:49:02;;;;;;;35.27;5.87;;;9.30;99.90;;;;;;5093053;28;20079;-81
2023/12/29 06:51:28;;;;;;;38.40;6.93;;;9.40;99.90;;;;;;5093183;28;20270;-81
2023/12/29 06:53:54;;;;;;;37.63;6.07;;;9.30;99.90;;;;;;5092941;28;20319;-81
2023/12/29 06:56:20;;;;;;;37.30;5.93;;;9.40;99.90;;;;;;5092907;28;20046;-81
2023/12/29 06:58:46;;;;;;;37.10;6.77;;;9.40;99.90;;;;;;5091941;28;20062;-80
2023/12/29 07:01:12;;;;;;;30.07;6.20;;;9.40;99.90;;;;;;5092944;28;20564;-81
2023/12/29 07:03:38;;;;;;;31.40;5.07;;;9.40;99.90;;;;;;5093050;28;20388;-81
2023/12/29 07:06:04;;;;;;;33.43;5.97;;;9.40;99.90;;;;;;5074901;28;20048;-81
2023/12/29 07:08:30;;;;;;;34.10;6.67;;;9.30;99.90;;;;;;5091896;28;20048;-81
2023/12/29 07:10:55;;;;;;;30.47;5.70;;;9.40;99.90;;;;;;5091481;28;20278;-82
2023/12/29 07:13:21;;;;;;;36.33;6.67;;;9.30;99.90;;;;;;5093074;28;20036;-82
2023/12/29 07:15:47;;;;;;;29.07;5.73;;;9.40;99.90;;;;;;5075090;28;20168;-81
2023/12/29 07:18:14;;;;;;;28.23;5.57;;;9.40;99.90;;;;;;5092772;28;20478;-84
2023/12/29 07:20:40;;;;;;;37.53;6.63;;;9.40;99.90;;;;;;5091908;28;20374;-83
2023/12/29 07:23:05;;;;;;;31.33;5.50;;;9.50;99.90;;;;;;5096356;28;20294;-83
2023/12/29 07:25:31;;;;;;;37.63;6.77;;;9.50;99.90;;;;;;5096495;28;20340;-83
2023/12/29 07:27:57;;;;;;;29.20;5.60;;;9.50;99.90;;;;;;5096252;28;20452;-82
2023/12/29 07:30:23;;;;;;;29.90;5.40;;;9.50;99.90;;;;;;5095513;28;20127;-82
2023/12/29 07:32:48;;;;;;;32.57;6.23;;;9.50;99.90;;;;;;5096454;28;20111;-83
2023/12/29 07:35:17;;;;;;;30.93;5.40;;;9.50;99.90;;;;;;5096663;28;20048;-82
2023/12/29 07:37:43;;;;;;;30.27;6.13;;;9.50;99.90;;;;;;5096625;28;20401;-83
2023/12/29 07:40:13;;;;;;;30.70;6.03;;;9.50;99.90;;;;;;5096147;28;20675;-83
2023/12/29 07:42:40;;;;;;;30.37;6.37;;;9.50;99.90;;;;;;5096164;28;20294;-83
2023/12/29 07:45:06;;;;;;;33.37;6.03;;;9.50;99.90;;;;;;5096286;28;20364;-83
2023/12/29 07:47:32;;;;;;;35.87;6.43;;;9.50;99.90;;;;;;5096416;28;20305;-84
2023/12/29 07:49:58;;;;;;;32.20;5.77;;;9.50;99.90;;;;;;5094998;28;20750;-83
2023/12/29 07:52:24;;;;;;;33.53;6.80;;;9.50;99.90;;;;;;5096174;28;20036;-83
2023/12/29 07:54:49;;;;;;;34.03;6.20;;;9.50;99.90;;;;;;5095961;28;20123;-83
2023/12/29 07:57:15;;;;;;;25.67;6.17;;;9.40;99.90;;;;;;5095918;28;20453;-83
2023/12/29 07:59:41;;;;;;;30.77;5.60;;;9.40;99.90;;;;;;5096267;28;20043;-85
2023/12/29 08:02:07;;;;;;;35.30;6.50;;;9.40;99.90;;;;;;5094689;28;20481;-83
2023/12/29 08:04:33;;;;;;;32.80;5.50;;;9.40;99.90;;;;;;5096068;28;20044;-84
2023/12/29 08:06:58;;;;;;;31.40;4.93;;;9.40;99.90;;;;;;5094527;28;20040;-83
2023/12/29 08:09:25;;;;;;;32.13;7.07;;;9.40;99.90;;;;;;5095734;28;20119;-84
2023/12/29 08:11:51;;;;;;;34.03;6.83;;;9.40;99.90;;;;;;5095950;28;20105;-85
2023/12/29 08:14:17;;;;;;;37.07;6.17;;;9.40;99.90;;;;;;5095454;28;20270;-84
2023/12/29 08:16:43;;;;;;;33.07;6.97;;;9.40;99.90;;;;;;5095865;28;20119;-79
2023/12/29 08:19:10;;;;;;;43.37;7.60;;;9.30;99.90;;;;;;5094390;28;20079;-81
2023/12/29 08:21:36;;;;;;;36.57;7.60;;;9.30;99.90;;;;;;5095614;28;20429;-82
2023/12/29 08:24:02;;;;;;;44.40;6.93;;;9.30;99.90;;;;;;5095124;28;20293;-78
2023/12/29 08:26:29;;;;;;;33.00;6.10;;;9.30;99.90;;;;;;5095599;28;20274;-79
2023/12/29 08:28:54;;;;;;;31.50;6.53;;;9.30;99.90;;;;;;5095669;28;20323;-79
2023/12/29 08:31:22;;;;;;;30.60;6.60;;;9.30;99.90;;;;;;5095530;28;20278;-79
2023/12/29 08:33:48;;;;;;;38.27;6.63;;;9.30;99.90;;;;;;5094968;28;20400;-79
2023/12/29 08:36:13;;;;;;;33.33;6.10;;;9.30;99.90;;;;;;5095106;28;20357;-79
2023/12/29 08:38:39;;;;;;;28.43;5.17;;;9.20;99.90;;;;;;5095044;28;20485;-81
2023/12/29 08:41:05;;;;;;;34.43;5.27;;;9.30;99.90;;;;;;5094244;28;20044;-79
2023/12/29 08:43:31;;;;;;;33.00;6.53;;;9.20;99.90;;;;;;5095224;28;20036;-80
2023/12/29 08:45:56;;;;;;;38.20;7.63;;;9.20;99.90;;;;;;5077384;28;20382;-80
2023/12/29 08:48:23;;;;;;;32.10;6.70;;;9.20;99.90;;;;;;5095075;28;20075;-80
2023/12/29 08:50:49;;;;;;;29.40;5.77;;;9.20;99.90;;;;;;5094025;28;20044;-79
2023/12/29 08:53:18;;;;;;;28.97;5.60;;;9.20;99.90;;;;;;5094908;28;20274;-79
2023/12/29 08:55:44;;;;;;;34.03;6.67;;;9.20;99.90;;;;;;5094114;28;20289;-80
2023/12/29 08:58:09;;;;;;;37.33;6.20;;;9.20;99.90;;;;;;5094824;28;20278;-80
2023/12/29 09:00:35;;;;;;;33.70;6.03;;;9.20;99.90;;;;;;5094864;28;20043;-80
2023/12/29 09:03:01;;;;;;;36.60;6.70;;;9.20;99.90;;;;;;5076710;28;20085;-80
2023/12/29 09:05:26;;;;;;;29.13;5.10;;;9.20;99.90;;;;;;5094672;28;20050;-83
2023/12/29 09:07:52;;;;;;;29.00;5.33;;;9.20;99.90;;;;;;5093531;28;20039;-83
2023/12/29 09:10:18;;;;;;;33.47;5.73;;;9.20;99.90;;;;;;5094288;28;20116;-79
2023/12/29 09:12:44;;;;;;;29.90;5.87;;;9.20;99.90;;;;;;5094592;28;20075;-79
2023/12/29 09:15:09;;;;;;;26.00;5.10;;;9.30;99.90;;;;;;5094123;28;20036;-79
2023/12/29 09:17:35;;;;;;;38.17;5.93;;;9.30;99.90;;;;;;5094892;28;20097;-80
2023/12/29 09:20:01;;;;;;;32.77;6.07;;;9.30;99.90;;;;;;5094380;28;20039;-81
2023/12/29 09:22:27;;;;;;;35.53;6.17;;;9.30;99.90;;;;;;5094253;28;20040;-80
2023/12/29 09:24:55;;;;;;;38.47;6.37;;;9.40;99.90;;;;;;5093320;28;20327;-80
2023/12/29 09:27:21;;;;;;;31.93;6.00;;;9.40;99.90;;;;;;5094202;28;20040;-80
2023/12/29 09:29:46;;;;;;;31.47;5.50;;;9.40;99.90;;;;;;5094252;28;20281;-80
2023/12/29 09:32:12;;;;;;;32.73;5.80;;;9.50;99.90;;;;;;5094025;28;20047;-79
2023/12/29 09:34:38;;;;;;;31.87;6.00;;;9.50;99.90;;;;;;5092712;28;20047;-80
2023/12/29 09:37:04;;;;;;;31.00;4.83;;;9.50;99.90;;;;;;5093765;28;20485;-79
2023/12/29 09:39:31;;;;;;;30.33;5.83;;;9.50;99.90;;;;;;5094234;28;20503;-80
2023/12/29 09:42:01;;;;;;;33.97;5.87;;;9.50;99.90;;;;;;5094331;28;20432;-81
2023/12/29 09:44:30;;;;;;;30.97;5.63;;;9.50;99.90;;;;;;5092971;28;20302;-81
2023/12/29 09:47:00;;;;;;;24.83;5.07;;;9.50;99.90;;;;;;5094022;28;20273;-84
2023/12/29 09:49:30;;;;;;;33.10;6.03;;;9.50;99.90;;;;;;5093792;28;20273;-82
2023/12/29 09:51:58;;;;;;;35.47;6.47;;;9.50;99.90;;;;;;5094220;28;20277;-81
2023/12/29 09:54:24;;;;;;;28.27;5.63;;;9.50;99.90;;;;;;5093512;28;20773;-81
2023/12/29 09:56:51;;;;;;;24.43;5.27;;;9.60;99.90;;;;;;5093023;28;20316;-80
2023/12/29 09:59:16;;;;;;;33.20;5.70;;;9.60;99.90;;;;;;5093524;28;20376;-80
2023/12/29 10:01:46;;;;;;;23.77;6.07;;;9.60;99.90;;;;;;5093689;28;20285;-80
2023/12/29 10:04:12;;;;;;;22.17;4.40;;;9.60;99.90;;;;;;5092365;28;20048;-81
2023/12/29 10:06:45;;;;;;;26.67;5.87;;;9.60;99.90;;;;;;5093135;28;20336;-78
2023/12/29 10:09:13;;;;;;;27.60;5.77;;;9.60;99.90;;;;;;5092923;28;20353;-79
2023/12/29 10:11:42;;;;;;;29.53;4.50;;;9.60;99.90;;;;;;5093001;28;20270;-86
2023/12/29 10:14:37;;;;;;;25.10;5.07;;;9.70;99.90;;;;;;5092022;28;20274;-86
2023/12/29 10:17:34;;;;;;;18.83;4.53;;;9.60;99.90;;;;;;5091078;28;20285;-76
2023/12/29 10:20:28;;;;;;;21.53;4.33;;;9.60;99.90;;;;;;5092710;28;20086;-82
2023/12/29 10:23:08;;;;;;;22.53;4.70;;;9.60;99.90;;;;;;5089922;28;20306;-79
2023/12/29 10:25:35;;;;;;;20.70;4.83;;;9.50;99.90;;;;;;5093523;28;20288;-80
2023/12/29 10:28:00;;;;;;;22.73;4.67;;;9.50;99.90;;;;;;5093308;28;20336;-80
2023/12/29 10:30:26;;;;;;;19.57;3.63;;;9.50;99.90;;;;;;5093078;28;20278;-80
2023/12/29 10:32:53;;;;;;;19.13;4.43;;;9.40;99.90;;;;;;5093160;28;20040;-80
2023/12/29 10:35:19;;;;;;;23.50;4.50;;;9.40;99.90;;;;;;5093409;28;20290;-81
2023/12/29 10:37:45;;;;;;;17.37;3.70;;;9.40;99.90;;;;;;5093306;28;20294;-81
2023/12/29 10:40:18;;;;;;;20.37;3.83;;;9.40;99.90;;;;;;5092874;28;20274;-80
2023/12/29 10:43:05;;;;;;;21.53;4.17;;;9.30;99.90;;;;;;5072791;28;20290;-78
2023/12/29 10:45:30;;;;;;;22.37;3.60;;;9.30;99.90;;;;;;5072858;28;20274;-77
2023/12/29 10:47:56;;;;;;;23.77;3.67;;;9.30;99.90;;;;;;5089963;28;20773;-81
2023/12/29 10:50:22;;;;;;;24.97;4.27;;;9.30;99.90;;;;;;5093247;28;20048;-81
2023/12/29 10:52:48;;;;;;;20.73;4.10;;;9.30;99.90;;;;;;5093133;28;20044;-81
2023/12/29 10:55:14;;;;;;;19.77;3.00;;;9.30;99.90;;;;;;5094042;28;20280;-82
2023/12/29 10:57:40;;;;;;;17.93;3.63;;;9.30;99.90;;;;;;5096221;28;20040;-80
2023/12/29 11:00:07;;;;;;;24.00;4.00;;;9.30;99.90;;;;;;5097083;28;20127;-81
2023/12/29 11:02:34;;;;;;;18.27;3.37;;;9.30;99.90;;;;;;5096703;28;20515;-80
2023/12/29 11:05:05;;;;;;;18.90;3.93;;;9.30;99.90;;;;;;5097221;28;20282;-80
2023/12/29 11:07:35;;;;;;;20.33;4.30;;;9.20;99.90;;;;;;5096980;28;20282;-79
2023/12/29 11:10:03;;;;;;;26.07;4.33;;;9.20;99.90;;;;;;5097058;28;20270;-75
2023/12/29 11:12:34;;;;;;;24.93;4.57;;;9.20;99.90;;;;;;5096697;28;20278;-80
2023/12/29 11:15:02;;;;;;;19.70;3.67;;;9.20;99.90;;;;;;5096851;28;20339;-81
2023/12/29 11:17:31;;;;;;;21.57;3.73;;;9.30;99.90;;;;;;5096722;28;20339;-77
2023/12/29 11:20:02;;;;;;;19.80;4.43;;;9.40;99.90;;;;;;5096947;28;20274;-81
2023/12/29 11:22:32;;;;;;;17.33;3.00;;;9.40;99.90;;;;;;5095312;28;20321;-81
2023/12/29 11:24:59;;;;;;;21.53;4.50;;;9.50;99.90;;;;;;5096844;28;20465;-83
2023/12/29 11:27:31;;;;;;;18.40;3.97;;;9.40;99.90;;;;;;5096302;28;20282;-83
2023/12/29 11:29:59;;;;;;;17.63;4.10;;;9.40;99.90;;;;;;5096754;28;20309;-86
2023/12/29 11:32:50;;;;;;;14.07;3.27;;;9.40;99.90;;;;;;5096519;28;20665;-77
2023/12/29 11:35:34;;;;;;;18.73;3.80;;;9.40;99.90;;;;;;5096460;28;20293;-80
2023/12/29 11:38:06;;;;;;;19.63;3.80;;;9.40;99.90;;;;;;5096443;28;20286;-79
2023/12/29 11:41:06;;;;;;;21.20;3.80;;;9.30;99.90;;;;;;5096427;28;20365;-80
2023/12/29 11:43:32;;;;;;;16.53;3.73;;;9.30;99.90;;;;;;5069797;28;20298;-80
2023/12/29 11:45:58;;;;;;;19.47;4.47;;;9.20;99.90;;;;;;5096225;28;20323;-80
2023/12/29 11:48:56;;;;;;;23.23;4.90;;;9.20;99.90;;;;;;5094880;28;20496;-81
2023/12/29 11:51:49;;;;;;;15.37;3.80;;;9.20;99.90;;;;;;5096037;28;20140;-80
2023/12/29 11:54:26;;;;;;;20.00;4.37;;;9.20;99.90;;;;;;5092747;28;20286;-81
2023/12/29 11:56:53;;;;;;;17.97;3.83;;;9.20;99.90;;;;;;5095150;28;20278;-84
2023/12/29 11:59:19;;;;;;;19.23;4.37;;;9.20;99.90;;;;;;5096207;28;20282;-83
2023/12/29 12:02:06;;;;;;;18.97;3.73;;;9.10;99.90;;;;;;5095789;28;20393;-83
2023/12/29 12:04:45;;;;;;;16.97;3.90;;;9.10;99.90;;;;;;5095729;28;20036;-83
2023/12/29 12:07:36;;;;;;;18.77;3.90;;;9.10;99.90;;;;;;5094941;28;20282;-79
2023/12/29 12:10:23;;;;;;;19.60;4.30;;;9.00;99.90;;;;;;5095097;28;20420;-91
2023/12/29 12:12:51;;;;;;;14.80;4.03;;;9.00;99.90;;;;;;5097217;28;20275;-88
2023/12/29 12:15:29;;;;;;;16.57;3.93;;;9.00;99.90;;;;;;5097006;28;20274;-86
2023/12/29 12:17:59;;;;;;;20.33;4.40;;;8.90;99.90;;;;;;5097486;28;20308;-90
2023/12/29 12:20:26;;;;;;;20.17;3.80;;;8.90;99.90;;;;;;5096652;28;20366;-81
2023/12/29 12:22:59;;;;;;;19.40;3.90;;;8.90;99.90;;;;;;5095582;28;20317;-84
2023/12/29 12:25:29;;;;;;;17.93;5.00;;;8.90;99.90;;;;;;5095393;28;20746;-83
2023/12/29 12:27:56;;;;;;;19.80;4.33;;;8.80;99.90;;;;;;5094373;28;20785;-87
2023/12/29 12:30:22;;;;;;;15.00;3.20;;;8.70;99.90;;;;;;5095999;28;20360;-88
2023/12/29 12:32:58;;;;;;;21.83;4.10;;;8.70;99.90;;;;;;5094726;28;20294;-86
2023/12/29 12:35:26;;;;;;;17.23;3.43;;;8.70;99.90;;;;;;5097260;28;20282;-89
2023/12/29 12:38:07;;;;;;;20.33;4.10;;;8.70;99.90;;;;;;5096188;28;20274;-81
2023/12/29 12:40:33;;;;;;;19.40;4.03;;;8.70;99.90;;;;;;5095093;28;20281;-83
2023/12/29 12:42:59;;;;;;;15.20;3.77;;;8.70;99.90;;;;;;5095755;28;20639;-84
2023/12/29 12:45:26;;;;;;;22.70;4.00;;;8.80;99.90;;;;;;5095258;28;20044;-84
2023/12/29 12:48:00;;;;;;;21.20;4.20;;;8.80;99.90;;;;;;5095541;28;20465;-84
2023/12/29 12:50:26;;;;;;;17.00;3.33;;;8.80;99.90;;;;;;5094944;28;20328;-79